sensor_id;sensor_type;location;lat;lon;timestamp;temperature;humidity
1678;DHT22;6034;46.864;15.216;2023-08-06T06:17:48;15.20;99.90
1678;DHT22;6034;46.864;15.216;2023-08-06T06:20:15;15.30;99.90
1678;DHT22;6034;46.864;15.216;2023-08-06T06:22:42;15.30;99.90
1678;DHT22;6034;46.864;15.216;2023-08-06T06:25:09;15.30;99.90
1678;DHT22;6034;46.864;15.216;2023-08-06T06:27:36;15.30;99.90
1678;DHT22;6034;46.864;15.216;2023-08-06T06:30:04;15.30;99.90
1678;DHT22;6034;46.864;15.216;2023-08-06T06:32:31;15.30;99.90
1678;DHT22;6034;46.864;15.216;2023-08-06T06:35:01;15.30;99.90
1678;DHT22;6034;46.864;15.216;2023-08-06T06:37:30;15.30;99.90
1678;DHT22;6034;46.864;15.216;2023-08-06T06:39:57;15.40;99.90
1678;DHT22;6034;46.864;15.216;2023-08-06T06:42:24;15.50;99.90
1678;DHT22;6034;46.864;15.216;2023-08-06T06:44:52;15.50;99.90
1678;DHT22;6034;46.864;15.216;2023-08-06T06:47:19;15.40;99.90
1678;DHT22;6034;46.864;15.216;2023-08-06T06:49:46;15.50;99.90
1678;DHT22;6034;46.864;15.216;2023-08-06T06:52:14;15.40;99.90
1678;DHT22;6034;46.864;15.216;2023-08-06T06:54:41;15.40;99.90
1678;DHT22;6034;46.864;15.216;2023-08-06T06:57:08;15.50;99.90
1678;DHT22;6034;46.864;15.216;2023-08-06T06:59:35;15.60;99.90
1678;DHT22;6034;46.864;15.216;2023-08-06T07:02:04;15.60;99.90
1678;DHT22;6034;46.864;15.216;2023-08-06T07:04:31;15.60;99.90
1678;DHT22;6034;46.864;15.216;2023-08-06T07:06:58;15.60;99.90
1678;DHT22;6034;46.864;15.216;2023-08-06T07:09:26;15.60;99.90
1678;DHT22;6034;46.864;15.216;2023-08-06T07:11:53;15.60;99.90
1678;DHT22;6034;46.864;15.216;2023-08-06T07:14:20;15.70;99.90
1678;DHT22;6034;46.864;15.216;2023-08-06T07:16:47;15.70;99.90
1678;DHT22;6034;46.864;15.216;2023-08-06T07:19:14;15.70;99.90
1678;DHT22;6034;46.864;15.216;2023-08-06T07:21:41;15.60;99.90
1678;DHT22;6034;46.864;15.216;2023-08-06T07:24:08;15.70;99.90
1678;DHT22;6034;46.864;15.216;2023-08-06T07:26:37;15.70;99.90
1678;DHT22;6034;46.864;15.216;2023-08-06T07:29:04;15.70;99.90
1678;DHT22;6034;46.864;15.216;2023-08-06T07:31:31;15.70;99.90
1678;DHT22;6034;46.864;15.216;2023-08-06T07:33:58;15.70;99.90
1678;DHT22;6034;46.864;15.216;2023-08-06T07:36:25;15.70;99.90
1678;DHT22;6034;46.864;15.216;2023-08-06T07:38:54;15.70;99.90
1678;DHT22;6034;46.864;15.216;2023-08-06T07:41:22;15.80;99.90
1678;DHT22;6034;46.864;15.216;2023-08-06T07:43:50;15.80;99.90
1678;DHT22;6034;46.864;15.216;2023-08-06T07:46:18;15.80;99.90
1678;DHT22;6034;46.864;15.216;2023-08-06T07:48:45;15.70;99.90
1678;DHT22;6034;46.864;15.216;2023-08-06T07:51:12;15.80;99.90
1678;DHT22;6034;46.864;15.216;2023-08-06T07:53:39;15.90;99.90
1678;DHT22;6034;46.864;15.216;2023-08-06T07:56:06;15.90;99.90
1678;DHT22;6034;46.864;15.216;2023-08-06T07:58:33;15.90;99.90
1678;DHT22;6034;46.864;15.216;2023-08-06T08:01:01;16.00;99.90
1678;DHT22;6034;46.864;15.216;2023-08-06T08:03:29;16.00;99.90
1678;DHT22;6034;46.864;15.216;2023-08-06T08:05:56;16.10;99.90
1678;DHT22;6034;46.864;15.216;2023-08-06T08:08:24;16.10;99.90
1678;DHT22;6034;46.864;15.216;2023-08-06T08:10:51;16.10;99.90
1678;DHT22;6034;46.864;15.216;2023-08-06T08:13:18;16.10;99.90
1678;DHT22;6034;46.864;15.216;2023-08-06T08:15:45;16.10;99.90
1678;DHT22;6034;46.864;15.216;2023-08-06T08:18:13;16.10;99.90
1678;DHT22;6034;46.864;15.216;2023-08-06T08:20:40;16.20;99.90
1678;DHT22;6034;46.864;15.216;2023-08-06T08:23:08;16.20;99.90
1678;DHT22;6034;46.864;15.216;2023-08-06T08:25:35;16.20;99.90
1678;DHT22;6034;46.864;15.216;2023-08-06T08:28:03;16.30;99.90
1678;DHT22;6034;46.864;15.216;2023-08-06T08:30:32;16.30;99.90
1678;DHT22;6034;46.864;15.216;2023-08-06T08:32:59;16.30;99.90
1678;DHT22;6034;46.864;15.216;2023-08-06T08:35:27;16.30;99.90
1678;DHT22;6034;46.864;15.216;2023-08-06T08:37:54;16.30;99.90
1678;DHT22;6034;46.864;15.216;2023-08-06T08:40:21;16.20;99.90
1678;DHT22;6034;46.864;15.216;2023-08-06T08:42:51;16.20;99.90
1678;DHT22;6034;46.864;15.216;2023-08-06T08:45:18;16.30;99.90
1678;DHT22;6034;46.864;15.216;2023-08-06T08:47:47;16.40;99.90
1678;DHT22;6034;46.864;15.216;2023-08-06T08:50:14;16.40;99.90
1678;DHT22;6034;46.864;15.216;2023-08-06T08:52:42;16.40;99.90
1678;DHT22;6034;46.864;15.216;2023-08-06T08:55:11;16.50;99.90
1678;DHT22;6034;46.864;15.216;2023-08-06T08:57:39;16.50;99.90
1678;DHT22;6034;46.864;15.216;2023-08-06T09:00:06;16.50;99.90
1678;DHT22;6034;46.864;15.216;2023-08-06T09:02:34;16.60;99.90
1678;DHT22;6034;46.864;15.216;2023-08-06T09:05:01;16.50;99.90
1678;DHT22;6034;46.864;15.216;2023-08-06T09:07:32;16.60;99.90
1678;DHT22;6034;46.864;15.216;2023-08-06T09:10:01;16.70;99.90
1678;DHT22;6034;46.864;15.216;2023-08-06T09:12:30;16.80;99.90
1678;DHT22;6034;46.864;15.216;2023-08-06T09:14:57;16.80;99.90
1678;DHT22;6034;46.864;15.216;2023-08-06T09:17:24;16.90;99.90
1678;DHT22;6034;46.864;15.216;2023-08-06T09:19:51;16.80;99.90
1678;DHT22;6034;46.864;15.216;2023-08-06T09:22:18;16.90;99.90
1678;DHT22;6034;46.864;15.216;2023-08-06T09:24:45;17.00;99.90
1678;DHT22;6034;46.864;15.216;2023-08-06T09:27:14;17.00;99.90
1678;DHT22;6034;46.864;15.216;2023-08-06T09:29:41;17.00;99.90
1678;DHT22;6034;46.864;15.216;2023-08-06T09:32:10;17.10;99.90
1678;DHT22;6034;46.864;15.216;2023-08-06T09:34:38;17.20;99.90
1678;DHT22;6034;46.864;15.216;2023-08-06T09:37:06;17.30;99.90
1678;DHT22;6034;46.864;15.216;2023-08-06T09:39:35;17.30;99.90
1678;DHT22;6034;46.864;15.216;2023-08-06T09:42:02;17.30;99.90
1678;DHT22;6034;46.864;15.216;2023-08-06T09:44:32;17.30;99.90
1678;DHT22;6034;46.864;15.216;2023-08-06T09:46:59;17.40;99.90
1678;DHT22;6034;46.864;15.216;2023-08-06T09:49:27;17.70;99.90
1678;DHT22;6034;46.864;15.216;2023-08-06T09:51:54;17.90;99.90
1678;DHT22;6034;46.864;15.216;2023-08-06T09:54:23;18.10;99.90
1678;DHT22;6034;46.864;15.216;2023-08-06T09:56:52;18.30;99.90
1678;DHT22;6034;46.864;15.216;2023-08-06T09:59:19;18.40;99.90
1678;DHT22;6034;46.864;15.216;2023-08-06T10:01:48;18.50;99.90
1678;DHT22;6034;46.864;15.216;2023-08-06T10:04:15;18.50;99.90
1678;DHT22;6034;46.864;15.216;2023-08-06T10:06:43;18.40;99.90
1678;DHT22;6034;46.864;15.216;2023-08-06T10:09:12;18.50;99.90
1678;DHT22;6034;46.864;15.216;2023-08-06T10:11:39;18.80;99.90
1678;DHT22;6034;46.864;15.216;2023-08-06T10:14:08;18.70;99.90
1678;DHT22;6034;46.864;15.216;2023-08-06T10:16:36;19.10;99.90
1678;DHT22;6034;46.864;15.216;2023-08-06T10:19:07;19.10;99.90
1678;DHT22;6034;46.864;15.216;2023-08-06T10:21:34;19.00;99.90
1678;DHT22;6034;46.864;15.216;2023-08-06T10:24:01;19.30;99.90
1678;DHT22;6034;46.864;15.216;2023-08-06T10:26:29;19.40;99.90
1678;DHT22;6034;46.864;15.216;2023-08-06T10:28:56;19.70;99.90
1678;DHT22;6034;46.864;15.216;2023-08-06T10:34:10;19.50;99.90
1678;DHT22;6034;46.864;15.216;2023-08-06T10:36:37;19.40;99.90
1678;DHT22;6034;46.864;15.216;2023-08-06T10:39:05;19.00;99.90
1678;DHT22;6034;46.864;15.216;2023-08-06T10:41:32;19.20;99.90
1678;DHT22;6034;46.864;15.216;2023-08-06T10:44:05;19.30;99.90
1678;DHT22;6034;46.864;15.216;2023-08-06T10:46:34;19.50;99.90
1678;DHT22;6034;46.864;15.216;2023-08-06T10:49:01;19.70;99.90
1678;DHT22;6034;46.864;15.216;2023-08-06T10:51:30;19.30;99.90
1678;DHT22;6034;46.864;15.216;2023-08-06T10:53:57;19.60;99.90
1678;DHT22;6034;46.864;15.216;2023-08-06T10:56:25;19.60;99.90
1678;DHT22;6034;46.864;15.216;2023-08-06T10:58:53;19.40;99.90
1678;DHT22;6034;46.864;15.216;2023-08-06T11:01:20;19.10;99.90
1678;DHT22;6034;46.864;15.216;2023-08-06T11:03:48;19.00;99.90
1678;DHT22;6034;46.864;15.216;2023-08-06T11:06:17;19.30;99.90
1678;DHT22;6034;46.864;15.216;2023-08-06T11:08:48;19.20;99.90
1678;DHT22;6034;46.864;15.216;2023-08-06T11:11:16;19.50;99.90
1678;DHT22;6034;46.864;15.216;2023-08-06T11:13:44;19.10;99.90
1678;DHT22;6034;46.864;15.216;2023-08-06T11:16:12;19.20;99.90
1678;DHT22;6034;46.864;15.216;2023-08-06T11:18:39;19.40;99.90
1678;DHT22;6034;46.864;15.216;2023-08-06T11:21:07;19.70;99.90
1678;DHT22;6034;46.864;15.216;2023-08-06T11:23:35;20.10;99.90
1678;DHT22;6034;46.864;15.216;2023-08-06T11:26:03;20.40;99.90
1678;DHT22;6034;46.864;15.216;2023-08-06T11:28:30;20.10;99.90
1678;DHT22;6034;46.864;15.216;2023-08-06T11:30:58;19.80;99.90
1678;DHT22;6034;46.864;15.216;2023-08-06T11:33:27;20.00;99.90
1678;DHT22;6034;46.864;15.216;2023-08-06T11:35:55;19.90;99.90
1678;DHT22;6034;46.864;15.216;2023-08-06T11:38:24;19.90;99.90
1678;DHT22;6034;46.864;15.216;2023-08-06T11:40:51;19.90;99.90
1678;DHT22;6034;46.864;15.216;2023-08-06T11:43:20;19.80;99.90
1678;DHT22;6034;46.864;15.216;2023-08-06T11:45:49;19.80;99.90
1678;DHT22;6034;46.864;15.216;2023-08-06T11:48:18;19.80;99.90
1678;DHT22;6034;46.864;15.216;2023-08-06T11:50:45;19.90;99.90
1678;DHT22;6034;46.864;15.216;2023-08-06T11:53:12;20.20;99.90
1678;DHT22;6034;46.864;15.216;2023-08-06T11:55:40;20.40;99.90
1678;DHT22;6034;46.864;15.216;2023-08-06T11:58:08;20.40;99.90
1678;DHT22;6034;46.864;15.216;2023-08-06T12:00:38;20.50;99.90
1678;DHT22;6034;46.864;15.216;2023-08-06T12:03:05;20.50;99.90
1678;DHT22;6034;46.864;15.216;2023-08-06T12:05:32;20.50;99.90
1678;DHT22;6034;46.864;15.216;2023-08-06T12:08:00;20.60;99.90
1678;DHT22;6034;46.864;15.216;2023-08-06T12:10:28;20.60;99.90
1678;DHT22;6034;46.864;15.216;2023-08-06T12:12:56;20.60;99.90
1678;DHT22;6034;46.864;15.216;2023-08-06T12:15:23;20.60;99.90
1678;DHT22;6034;46.864;15.216;2023-08-06T12:17:52;20.80;99.90
1678;DHT22;6034;46.864;15.216;2023-08-06T12:20:19;20.80;99.90
1678;DHT22;6034;46.864;15.216;2023-08-06T12:22:46;20.70;99.90
1678;DHT22;6034;46.864;15.216;2023-08-06T12:25:13;20.70;99.90
1678;DHT22;6034;46.864;15.216;2023-08-06T12:27:44;20.80;99.90
1678;DHT22;6034;46.864;15.216;2023-08-06T12:30:11;21.00;99.90
1678;DHT22;6034;46.864;15.216;2023-08-06T12:32:39;21.00;99.90
1678;DHT22;6034;46.864;15.216;2023-08-06T12:35:08;20.80;99.90
1678;DHT22;6034;46.864;15.216;2023-08-06T12:37:35;20.80;99.90
1678;DHT22;6034;46.864;15.216;2023-08-06T12:40:04;20.80;99.90
1678;DHT22;6034;46.864;15.216;2023-08-06T12:42:31;20.70;99.90
1678;DHT22;6034;46.864;15.216;2023-08-06T12:44:58;20.80;99.90
1678;DHT22;6034;46.864;15.216;2023-08-06T12:47:26;20.80;99.90
1678;DHT22;6034;46.864;15.216;2023-08-06T12:49:52;21.00;99.90
1678;DHT22;6034;46.864;15.216;2023-08-06T12:52:21;20.90;99.90
1678;DHT22;6034;46.864;15.216;2023-08-06T12:54:48;20.80;99.90
1678;DHT22;6034;46.864;15.216;2023-08-06T12:57:15;20.90;99.90
1678;DHT22;6034;46.864;15.216;2023-08-06T12:59:43;20.80;99.90
1678;DHT22;6034;46.864;15.216;2023-08-06T13:02:09;20.70;99.90
1678;DHT22;6034;46.864;15.216;2023-08-06T13:04:38;20.80;99.90
1678;DHT22;6034;46.864;15.216;2023-08-06T13:07:06;21.20;99.90
1678;DHT22;6034;46.864;15.216;2023-08-06T13:09:37;21.20;99.90
1678;DHT22;6034;46.864;15.216;2023-08-06T13:12:05;21.00;99.90
1678;DHT22;6034;46.864;15.216;2023-08-06T13:14:32;20.90;99.90
1678;DHT22;6034;46.864;15.216;2023-08-06T13:17:01;20.60;99.90
1678;DHT22;6034;46.864;15.216;2023-08-06T13:19:32;20.70;99.90
1678;DHT22;6034;46.864;15.216;2023-08-06T13:22:01;21.00;99.90
1678;DHT22;6034;46.864;15.216;2023-08-06T13:24:31;21.00;99.90
1678;DHT22;6034;46.864;15.216;2023-08-06T13:26:59;20.90;99.90
1678;DHT22;6034;46.864;15.216;2023-08-06T13:29:26;20.80;99.90
1678;DHT22;6034;46.864;15.216;2023-08-06T13:31:54;20.70;99.90
1678;DHT22;6034;46.864;15.216;2023-08-06T13:34:22;20.70;99.90
1678;DHT22;6034;46.864;15.216;2023-08-06T13:36:49;20.80;99.90
1678;DHT22;6034;46.864;15.216;2023-08-06T13:39:17;21.00;99.90
1678;DHT22;6034;46.864;15.216;2023-08-06T13:41:45;21.30;99.90
1678;DHT22;6034;46.864;15.216;2023-08-06T13:44:14;21.50;99.90
1678;DHT22;6034;46.864;15.216;2023-08-06T13:46:42;21.40;99.90
1678;DHT22;6034;46.864;15.216;2023-08-06T13:49:10;21.40;99.90
1678;DHT22;6034;46.864;15.216;2023-08-06T13:51:38;21.30;99.90
1678;DHT22;6034;46.864;15.216;2023-08-06T13:54:05;21.30;99.90
1678;DHT22;6034;46.864;15.216;2023-08-06T13:56:33;21.40;99.90
1678;DHT22;6034;46.864;15.216;2023-08-06T13:59:01;21.50;99.90
1678;DHT22;6034;46.864;15.216;2023-08-06T14:01:30;21.30;99.90
1678;DHT22;6034;46.864;15.216;2023-08-06T14:03:58;21.30;99.90
1678;DHT22;6034;46.864;15.216;2023-08-06T14:06:25;21.20;99.90
1678;DHT22;6034;46.864;15.216;2023-08-06T14:08:53;21.30;99.90
1678;DHT22;6034;46.864;15.216;2023-08-06T14:11:21;21.50;99.90
1678;DHT22;6034;46.864;15.216;2023-08-06T14:13:48;21.70;99.90
1678;DHT22;6034;46.864;15.216;2023-08-06T14:16:15;21.70;99.90
1678;DHT22;6034;46.864;15.216;2023-08-06T14:18:45;21.60;99.90
1678;DHT22;6034;46.864;15.216;2023-08-06T14:21:13;21.50;99.90
1678;DHT22;6034;46.864;15.216;2023-08-06T14:23:40;21.40;99.90
1678;DHT22;6034;46.864;15.216;2023-08-06T14:26:09;21.40;99.90
1678;DHT22;6034;46.864;15.216;2023-08-06T14:28:37;21.30;99.90
1678;DHT22;6034;46.864;15.216;2023-08-06T14:31:05;21.20;99.90
1678;DHT22;6034;46.864;15.216;2023-08-06T14:33:34;21.20;99.90
1678;DHT22;6034;46.864;15.216;2023-08-06T14:36:02;21.00;99.90
1678;DHT22;6034;46.864;15.216;2023-08-06T14:38:31;21.10;99.90
1678;DHT22;6034;46.864;15.216;2023-08-06T14:40:59;21.20;99.90
1678;DHT22;6034;46.864;15.216;2023-08-06T14:43:27;21.40;99.90
1678;DHT22;6034;46.864;15.216;2023-08-06T14:45:56;21.40;99.90
1678;DHT22;6034;46.864;15.216;2023-08-06T14:48:24;21.10;99.90
1678;DHT22;6034;46.864;15.216;2023-08-06T14:50:53;21.30;99.90
1678;DHT22;6034;46.864;15.216;2023-08-06T14:53:25;21.30;99.90
1678;DHT22;6034;46.864;15.216;2023-08-06T14:55:53;21.20;99.90
1678;DHT22;6034;46.864;15.216;2023-08-06T14:58:22;21.10;99.90
1678;DHT22;6034;46.864;15.216;2023-08-06T15:00:50;20.70;99.90
1678;DHT22;6034;46.864;15.216;2023-08-06T15:03:18;20.80;99.90
1678;DHT22;6034;46.864;15.216;2023-08-06T15:05:46;20.80;99.90
1678;DHT22;6034;46.864;15.216;2023-08-06T15:08:16;20.80;99.90
1678;DHT22;6034;46.864;15.216;2023-08-06T15:10:50;20.80;99.90
1678;DHT22;6034;46.864;15.216;2023-08-06T15:13:20;20.70;99.90
1678;DHT22;6034;46.864;15.216;2023-08-06T15:15:47;20.50;99.90
1678;DHT22;6034;46.864;15.216;2023-08-06T15:18:15;20.50;99.90
1678;DHT22;6034;46.864;15.216;2023-08-06T15:20:42;20.50;99.90
1678;DHT22;6034;46.864;15.216;2023-08-06T15:23:14;20.30;99.90
1678;DHT22;6034;46.864;15.216;2023-08-06T15:25:41;20.30;99.90
1678;DHT22;6034;46.864;15.216;2023-08-06T15:28:12;20.20;99.90
1678;DHT22;6034;46.864;15.216;2023-08-06T15:30:39;20.20;99.90
1678;DHT22;6034;46.864;15.216;2023-08-06T15:33:13;20.30;99.90
1678;DHT22;6034;46.864;15.216;2023-08-06T15:35:40;20.30;99.90
1678;DHT22;6034;46.864;15.216;2023-08-06T15:38:08;20.30;99.90
1678;DHT22;6034;46.864;15.216;2023-08-06T15:40:36;20.30;99.90
1678;DHT22;6034;46.864;15.216;2023-08-06T15:43:03;20.20;99.90
1678;DHT22;6034;46.864;15.216;2023-08-06T15:45:33;20.20;99.90
1678;DHT22;6034;46.864;15.216;2023-08-06T15:48:00;20.20;99.90
1678;DHT22;6034;46.864;15.216;2023-08-06T15:50:28;20.20;99.90
1678;DHT22;6034;46.864;15.216;2023-08-06T15:52:56;20.20;99.90
1678;DHT22;6034;46.864;15.216;2023-08-06T15:55:22;20.10;99.90
1678;DHT22;6034;46.864;15.216;2023-08-06T15:57:50;20.10;99.90
1678;DHT22;6034;46.864;15.216;2023-08-06T16:00:18;20.00;99.90
1678;DHT22;6034;46.864;15.216;2023-08-06T16:02:48;20.00;99.90
1678;DHT22;6034;46.864;15.216;2023-08-06T16:05:15;20.00;99.90
1678;DHT22;6034;46.864;15.216;2023-08-06T16:07:43;19.90;99.90
1678;DHT22;6034;46.864;15.216;2023-08-06T16:10:10;19.80;99.90
1678;DHT22;6034;46.864;15.216;2023-08-06T16:12:37;20.00;99.90
1678;DHT22;6034;46.864;15.216;2023-08-06T16:15:06;19.90;99.90
1678;DHT22;6034;46.864;15.216;2023-08-06T16:17:36;19.80;99.90
1678;DHT22;6034;46.864;15.216;2023-08-06T16:20:07;19.90;99.90
1678;DHT22;6034;46.864;15.216;2023-08-06T16:22:35;19.80;99.90
1678;DHT22;6034;46.864;15.216;2023-08-06T16:25:02;19.80;99.90
1678;DHT22;6034;46.864;15.216;2023-08-06T16:27:30;19.70;99.90
1678;DHT22;6034;46.864;15.216;2023-08-06T16:29:58;19.70;99.90
1678;DHT22;6034;46.864;15.216;2023-08-06T16:32:25;19.70;99.90
1678;DHT22;6034;46.864;15.216;2023-08-06T16:34:54;19.60;99.90
1678;DHT22;6034;46.864;15.216;2023-08-06T16:37:23;19.50;99.90
1678;DHT22;6034;46.864;15.216;2023-08-06T16:39:51;19.50;99.90
1678;DHT22;6034;46.864;15.216;2023-08-06T16:42:19;19.40;99.90
1678;DHT22;6034;46.864;15.216;2023-08-06T16:44:47;19.50;99.90
1678;DHT22;6034;46.864;15.216;2023-08-06T16:47:14;19.40;99.90
1678;DHT22;6034;46.864;15.216;2023-08-06T16:49:41;19.40;99.90
1678;DHT22;6034;46.864;15.216;2023-08-06T16:52:10;19.30;99.90
1678;DHT22;6034;46.864;15.216;2023-08-06T16:54:38;19.30;99.90
1678;DHT22;6034;46.864;15.216;2023-08-06T16:57:07;19.20;99.90
1678;DHT22;6034;46.864;15.216;2023-08-06T16:59:35;19.10;99.90
1678;DHT22;6034;46.864;15.216;2023-08-06T17:02:02;19.00;99.90
1678;DHT22;6034;46.864;15.216;2023-08-06T17:04:30;19.00;99.90
1678;DHT22;6034;46.864;15.216;2023-08-06T17:06:59;19.00;99.90
1678;DHT22;6034;46.864;15.216;2023-08-06T17:09:27;18.90;99.90
1678;DHT22;6034;46.864;15.216;2023-08-06T17:11:58;18.90;99.90
1678;DHT22;6034;46.864;15.216;2023-08-06T17:14:25;18.90;99.90
1678;DHT22;6034;46.864;15.216;2023-08-06T17:16:53;18.80;99.90
1678;DHT22;6034;46.864;15.216;2023-08-06T17:19:21;18.80;99.90
1678;DHT22;6034;46.864;15.216;2023-08-06T17:21:49;18.80;99.90
1678;DHT22;6034;46.864;15.216;2023-08-06T17:24:17;18.70;99.90
1678;DHT22;6034;46.864;15.216;2023-08-06T17:26:45;18.70;99.90
1678;DHT22;6034;46.864;15.216;2023-08-06T17:29:14;18.70;99.90
1678;DHT22;6034;46.864;15.216;2023-08-06T17:31:42;18.60;99.90
1678;DHT22;6034;46.864;15.216;2023-08-06T17:34:11;18.60;99.90
1678;DHT22;6034;46.864;15.216;2023-08-06T17:36:39;18.60;99.90
1678;DHT22;6034;46.864;15.216;2023-08-06T17:39:07;18.50;99.90
1678;DHT22;6034;46.864;15.216;2023-08-06T17:41:36;18.50;99.90
1678;DHT22;6034;46.864;15.216;2023-08-06T17:44:03;18.50;99.90
1678;DHT22;6034;46.864;15.216;2023-08-06T17:46:33;18.50;99.90
1678;DHT22;6034;46.864;15.216;2023-08-06T17:49:00;18.40;99.90
1678;DHT22;6034;46.864;15.216;2023-08-06T17:51:28;18.40;99.90
1678;DHT22;6034;46.864;15.216;2023-08-06T17:53:57;18.40;99.90
1678;DHT22;6034;46.864;15.216;2023-08-06T17:56:25;18.40;99.40
1678;DHT22;6034;46.864;15.216;2023-08-06T17:58:53;18.40;98.80
1678;DHT22;6034;46.864;15.216;2023-08-06T18:01:22;18.40;97.10
1678;DHT22;6034;46.864;15.216;2023-08-06T18:03:52;18.40;97.20
1678;DHT22;6034;46.864;15.216;2023-08-06T18:06:20;18.50;96.60
1678;DHT22;6034;46.864;15.216;2023-08-06T18:08:47;18.50;97.20
1678;DHT22;6034;46.864;15.216;2023-08-06T18:11:15;18.50;95.90
1678;DHT22;6034;46.864;15.216;2023-08-06T18:13:44;18.50;96.30
1678;DHT22;6034;46.864;15.216;2023-08-06T18:16:12;18.40;96.30
1678;DHT22;6034;46.864;15.216;2023-08-06T18:18:41;18.40;95.90
1678;DHT22;6034;46.864;15.216;2023-08-06T18:21:11;18.40;96.40
1678;DHT22;6034;46.864;15.216;2023-08-06T18:23:39;18.40;96.80
1678;DHT22;6034;46.864;15.216;2023-08-06T18:26:06;18.40;94.80
1678;DHT22;6034;46.864;15.216;2023-08-06T18:28:34;18.40;95.10
1678;DHT22;6034;46.864;15.216;2023-08-06T18:31:02;18.40;94.20
1678;DHT22;6034;46.864;15.216;2023-08-06T18:33:30;18.40;94.00
1678;DHT22;6034;46.864;15.216;2023-08-06T18:35:58;18.50;93.30
1678;DHT22;6034;46.864;15.216;2023-08-06T18:38:28;18.40;93.80
1678;DHT22;6034;46.864;15.216;2023-08-06T18:40:57;18.30;94.80
1678;DHT22;6034;46.864;15.216;2023-08-06T18:43:25;18.40;94.50
1678;DHT22;6034;46.864;15.216;2023-08-06T18:45:56;18.30;94.00
1678;DHT22;6034;46.864;15.216;2023-08-06T18:48:27;18.30;93.80
1678;DHT22;6034;46.864;15.216;2023-08-06T18:50:57;18.30;94.50
1678;DHT22;6034;46.864;15.216;2023-08-06T18:53:30;18.30;93.20
1678;DHT22;6034;46.864;15.216;2023-08-06T18:55:59;18.20;95.30
1678;DHT22;6034;46.864;15.216;2023-08-06T18:58:29;18.20;95.30
1678;DHT22;6034;46.864;15.216;2023-08-06T19:00:59;18.10;95.70
1678;DHT22;6034;46.864;15.216;2023-08-06T19:03:28;18.10;96.50
1678;DHT22;6034;46.864;15.216;2023-08-06T19:06:00;18.00;96.40
1678;DHT22;6034;46.864;15.216;2023-08-06T19:08:33;18.00;95.50
1678;DHT22;6034;46.864;15.216;2023-08-06T19:11:02;17.90;95.90
1678;DHT22;6034;46.864;15.216;2023-08-06T19:13:31;17.90;95.60
1678;DHT22;6034;46.864;15.216;2023-08-06T19:15:59;17.90;96.00
1678;DHT22;6034;46.864;15.216;2023-08-06T19:18:27;17.80;95.90
1678;DHT22;6034;46.864;15.216;2023-08-06T19:20:57;17.80;95.80
1678;DHT22;6034;46.864;15.216;2023-08-06T19:23:26;17.70;95.90
1678;DHT22;6034;46.864;15.216;2023-08-06T19:25:58;17.70;96.20
1678;DHT22;6034;46.864;15.216;2023-08-06T19:28:28;17.70;95.90
1678;DHT22;6034;46.864;15.216;2023-08-06T19:30:59;17.60;95.60
1678;DHT22;6034;46.864;15.216;2023-08-06T19:33:29;17.60;95.90
1678;DHT22;6034;46.864;15.216;2023-08-06T19:35:59;17.60;95.80
1678;DHT22;6034;46.864;15.216;2023-08-06T19:38:28;17.50;95.80
1678;DHT22;6034;46.864;15.216;2023-08-06T19:41:07;17.50;95.80
1678;DHT22;6034;46.864;15.216;2023-08-06T19:43:36;17.40;96.20
1678;DHT22;6034;46.864;15.216;2023-08-06T19:46:05;17.40;95.70
1678;DHT22;6034;46.864;15.216;2023-08-06T19:48:33;17.40;96.10
1678;DHT22;6034;46.864;15.216;2023-08-06T19:51:03;17.40;96.20
1678;DHT22;6034;46.864;15.216;2023-08-06T19:53:32;17.40;96.70
1678;DHT22;6034;46.864;15.216;2023-08-06T19:56:02;17.30;96.10
1678;DHT22;6034;46.864;15.216;2023-08-06T19:58:33;17.30;96.80
1678;DHT22;6034;46.864;15.216;2023-08-06T20:01:02;17.30;97.80
1678;DHT22;6034;46.864;15.216;2023-08-06T20:03:33;17.20;97.40
1678;DHT22;6034;46.864;15.216;2023-08-06T20:06:01;17.10;97.60
1678;DHT22;6034;46.864;15.216;2023-08-06T20:08:30;17.10;97.30
1678;DHT22;6034;46.864;15.216;2023-08-06T20:10:59;17.10;96.50
1678;DHT22;6034;46.864;15.216;2023-08-06T20:13:27;17.10;96.70
1678;DHT22;6034;46.864;15.216;2023-08-06T20:16:00;17.10;96.50
1678;DHT22;6034;46.864;15.216;2023-08-06T20:18:36;17.10;97.00
1678;DHT22;6034;46.864;15.216;2023-08-06T20:21:06;17.10;96.50
1678;DHT22;6034;46.864;15.216;2023-08-06T20:23:35;17.00;96.90
1678;DHT22;6034;46.864;15.216;2023-08-06T20:26:03;17.00;97.20
1678;DHT22;6034;46.864;15.216;2023-08-06T20:28:32;17.00;97.70
1678;DHT22;6034;46.864;15.216;2023-08-06T20:31:02;17.00;98.90
1678;DHT22;6034;46.864;15.216;2023-08-06T20:33:31;17.00;99.90
1678;DHT22;6034;46.864;15.216;2023-08-06T20:35:59;16.90;99.90
1678;DHT22;6034;46.864;15.216;2023-08-06T20:38:27;16.90;99.90
1678;DHT22;6034;46.864;15.216;2023-08-06T20:40:57;17.00;99.90
1678;DHT22;6034;46.864;15.216;2023-08-06T20:43:25;17.00;99.90
1678;DHT22;6034;46.864;15.216;2023-08-06T20:45:55;16.80;99.90
1678;DHT22;6034;46.864;15.216;2023-08-06T20:48:25;16.80;99.90
1678;DHT22;6034;46.864;15.216;2023-08-06T20:50:53;16.70;99.90
1678;DHT22;6034;46.864;15.216;2023-08-06T20:53:21;16.60;99.40
1678;DHT22;6034;46.864;15.216;2023-08-06T20:55:58;16.60;99.90
1678;DHT22;6034;46.864;15.216;2023-08-06T20:58:25;16.60;98.40
